»·PEaware :: N5JD KLAX-KSNA

N5JD :: KLAX-KSNA

FLIGHT INFORMATION

Flight Status: Arrived
Operator: Privately registered:
United States
More flights under this callsign
Pilot: Shane T. (29357)
Aircraft: CESSNA 337 TURBO SKYMASTER
(C337)
More flights by this aircraft type
Origin: KLAX Los Angeles Intl
United States
Destination: KSNA John Wayne-Orange Co
United States
More flights between these airports :: More routes between these airports
Route: SLI8 SLI
File this flight plan on PilotEdge
Remarks:
Altitude:
(Current/Filed)
4,000ft
Speed:
(Current/Filed)
165kts
Departed: 20-May-20 09:14 PM
Arrived: 20-May-20 09:49 PM
Distance/Time
Traveled:
31nm/0:34
Distance/Time
To Go:
Arrived

Flight Plot

Page will automatically refresh every two minutes.


Map Options




Map Legend


Flown Route
Filed Route
Departure Airport
Arrival Airport
Navaid (VOR, NDB)
Fix

Horizontal Profiles

Position Reports

Time Latitude Longitude Heading Altitude Ground
Speed
20-May-20 20:55 33.933407 -118.397328 261 116ft 0kts
20-May-20 20:56 33.933407 -118.397328 261 116ft 0kts
20-May-20 20:57 33.933407 -118.397329 261 116ft 0kts
20-May-20 20:58 33.933407 -118.397329 261 116ft 0kts
20-May-20 20:59 33.933407 -118.397329 261 116ft 0kts
20-May-20 21:00 33.933407 -118.397329 261 116ft 0kts
20-May-20 21:01 33.933407 -118.397329 261 116ft 0kts
20-May-20 21:02 33.933407 -118.397329 261 116ft 0kts
20-May-20 21:03 33.933407 -118.397329 261 116ft 0kts
20-May-20 21:04 33.933407 -118.397329 261 116ft 0kts
20-May-20 21:05 33.933407 -118.397329 261 116ft 0kts
20-May-20 21:06 33.933407 -118.397329 261 116ft 0kts
20-May-20 21:07 33.933407 -118.397329 261 116ft 0kts
20-May-20 21:08 33.933621 -118.398123 1 116ft 4kts
20-May-20 21:09 33.933960 -118.398131 352 114ft 0kts
20-May-20 21:10 33.935211 -118.393709 12 105ft 6kts
20-May-20 21:11 33.935294 -118.393699 2 105ft 0kts
20-May-20 21:12 33.935310 -118.393698 2 105ft 3kts
20-May-20 21:13 33.934664 -118.408643 260 373ft 98kts
20-May-20 21:14 33.929357 -118.441569 244 1791ft 102kts
20-May-20 21:15 33.902302 -118.455074 174 3066ft 116kts
20-May-20 21:16 33.868526 -118.448060 168 4007ft 140kts
20-May-20 21:17 33.826340 -118.436374 143 4007ft 163kts
20-May-20 21:18 33.789952 -118.402932 142 3994ft 165kts
20-May-20 21:19 33.753582 -118.369481 143 3998ft 165kts
20-May-20 21:20 33.718619 -118.337301 143 3989ft 165kts
20-May-20 21:21 33.686978 -118.308166 143 3989ft 165kts
20-May-20 21:22 33.664202 -118.266742 58 3988ft 163kts
20-May-20 21:23 33.691150 -118.223098 50 3989ft 162kts
20-May-20 21:24 33.718535 -118.180246 50 3989ft 161kts
20-May-20 21:25 33.744526 -118.136403 58 3989ft 161kts
20-May-20 21:26 33.766971 -118.089192 58 3989ft 162kts
20-May-20 21:27 33.788693 -118.041552 62 3989ft 162kts
20-May-20 21:28 33.808457 -117.992481 62 3989ft 162kts
20-May-20 21:29 33.828242 -117.943307 62 3989ft 162kts
20-May-20 21:30 33.847953 -117.894242 63 3989ft 162kts
20-May-20 21:31 33.867774 -117.845125 62 3989ft 162kts
20-May-20 21:32 33.887501 -117.795948 61 3988ft 162kts
20-May-20 21:33 33.907100 -117.746945 62 3989ft 162kts
20-May-20 21:34 33.933281 -117.705435 24 3991ft 159kts
20-May-20 21:35 33.972187 -117.681850 24 3988ft 152kts
20-May-20 21:36 33.983479 -117.701786 210 3427ft 139kts
20-May-20 21:37 33.949750 -117.715088 183 3430ft 118kts
20-May-20 21:38 33.919236 -117.722375 200 3487ft 115kts
20-May-20 21:39 33.889031 -117.738651 204 3315ft 127kts
20-May-20 21:40 33.857922 -117.754210 204 3342ft 118kts
20-May-20 21:41 33.830234 -117.770565 206 3002ft 114kts
20-May-20 21:42 33.802037 -117.788368 209 2445ft 114kts
20-May-20 21:43 33.774983 -117.806252 206 2003ft 101kts
20-May-20 21:44 33.748753 -117.822090 206 1639ft 108kts
20-May-20 21:45 33.722414 -117.839171 208 938ft 99kts
20-May-20 21:46 33.698135 -117.854476 208 452ft 99kts
20-May-20 21:47 33.677092 -117.867960 205 59ft 48kts
20-May-20 21:48 33.673555 -117.866977 167 59ft 13kts
20-May-20 21:49 33.672531 -117.866958 214 59ft 0kts
20-May-20 21:50 33.672531 -117.866958 214 59ft 0kts
20-May-20 21:51 33.672531 -117.866958 214 59ft 0kts

Navigation Log

Ident Type
Flight plan parsing failed, navigation log unavailable